sensor_id;sensor_type;location;lat;lon;timestamp;pressure;altitude;pressure_sealevel;temperature;humidity
52839;BME280;39219;53.678;9.856;2022-12-07T00:02:11;100934.81;;;3.13;100.00
52839;BME280;39219;53.678;9.856;2022-12-07T00:04:39;100928.69;;;3.14;100.00
52839;BME280;39219;53.678;9.856;2022-12-07T00:07:05;100918.97;;;3.04;100.00
52839;BME280;39219;53.678;9.856;2022-12-07T00:09:32;100929.41;;;3.01;100.00
52839;BME280;39219;53.678;9.856;2022-12-07T00:11:58;100918.88;;;2.96;100.00
52839;BME280;39219;53.678;9.856;2022-12-07T00:14:25;100927.59;;;2.90;100.00
52839;BME280;39219;53.678;9.856;2022-12-07T00:16:52;100916.28;;;2.96;100.00
52839;BME280;39219;53.678;9.856;2022-12-07T00:19:18;100922.38;;;2.95;100.00
52839;BME280;39219;53.678;9.856;2022-12-07T00:21:46;100915.44;;;3.02;100.00
52839;BME280;39219;53.678;9.856;2022-12-07T00:24:13;100917.16;;;2.98;100.00
52839;BME280;39219;53.678;9.856;2022-12-07T00:26:40;100910.06;;;2.86;100.00
52839;BME280;39219;53.678;9.856;2022-12-07T00:29:13;100902.94;;;2.76;100.00
52839;BME280;39219;53.678;9.856;2022-12-07T00:31:40;100909.03;;;2.72;100.00
52839;BME280;39219;53.678;9.856;2022-12-07T00:34:12;100911.59;;;2.69;100.00
52839;BME280;39219;53.678;9.856;2022-12-07T00:36:38;100922.13;;;2.72;100.00
52839;BME280;39219;53.678;9.856;2022-12-07T00:39:06;100917.75;;;2.72;100.00
52839;BME280;39219;53.678;9.856;2022-12-07T00:41:33;100915.16;;;2.74;100.00
52839;BME280;39219;53.678;9.856;2022-12-07T00:44:00;100909.13;;;2.83;100.00
52839;BME280;39219;53.678;9.856;2022-12-07T00:46:27;100901.31;;;2.87;100.00
52839;BME280;39219;53.678;9.856;2022-12-07T00:48:53;100894.28;;;2.85;100.00
52839;BME280;39219;53.678;9.856;2022-12-07T00:51:22;100901.22;;;2.78;100.00
52839;BME280;39219;53.678;9.856;2022-12-07T00:53:49;100904.78;;;2.83;100.00
52839;BME280;39219;53.678;9.856;2022-12-07T00:56:19;100890.00;;;2.91;100.00
52839;BME280;39219;53.678;9.856;2022-12-07T00:58:49;100881.34;;;3.00;100.00
52839;BME280;39219;53.678;9.856;2022-12-07T01:01:16;100885.75;;;3.06;100.00
52839;BME280;39219;53.678;9.856;2022-12-07T01:03:43;100886.66;;;3.09;100.00
52839;BME280;39219;53.678;9.856;2022-12-07T01:06:14;100878.75;;;3.03;100.00
52839;BME280;39219;53.678;9.856;2022-12-07T01:08:40;100871.66;;;2.96;100.00
52839;BME280;39219;53.678;9.856;2022-12-07T01:11:09;100882.09;;;2.88;100.00
52839;BME280;39219;53.678;9.856;2022-12-07T01:13:37;100873.34;;;2.86;100.00
52839;BME280;39219;53.678;9.856;2022-12-07T01:16:05;100876.75;;;2.79;100.00
52839;BME280;39219;53.678;9.856;2022-12-07T01:18:33;100881.94;;;2.74;100.00
52839;BME280;39219;53.678;9.856;2022-12-07T01:21:01;100874.13;;;2.80;100.00
52839;BME280;39219;53.678;9.856;2022-12-07T01:23:29;100880.31;;;2.86;100.00
52839;BME280;39219;53.678;9.856;2022-12-07T01:25:56;100871.63;;;2.91;100.00
52839;BME280;39219;53.678;9.856;2022-12-07T01:28:23;100876.81;;;2.87;100.00
52839;BME280;39219;53.678;9.856;2022-12-07T01:30:58;100858.44;;;2.84;100.00
52839;BME280;39219;53.678;9.856;2022-12-07T01:33:26;100860.91;;;2.71;100.00
52839;BME280;39219;53.678;9.856;2022-12-07T01:35:53;100866.94;;;2.62;100.00
52839;BME280;39219;53.678;9.856;2022-12-07T01:38:19;100860.78;;;2.56;100.00
52839;BME280;39219;53.678;9.856;2022-12-07T01:40:53;100863.28;;;2.46;100.00
52839;BME280;39219;53.678;9.856;2022-12-07T01:43:21;100864.03;;;2.37;100.00
52839;BME280;39219;53.678;9.856;2022-12-07T01:45:48;100864.00;;;2.31;100.00
52839;BME280;39219;53.678;9.856;2022-12-07T01:48:20;100866.56;;;2.30;100.00
52839;BME280;39219;53.678;9.856;2022-12-07T01:50:50;100859.63;;;2.30;100.00
52839;BME280;39219;53.678;9.856;2022-12-07T01:53:19;100854.28;;;2.24;100.00
52839;BME280;39219;53.678;9.856;2022-12-07T01:55:47;100862.97;;;2.20;100.00
52839;BME280;39219;53.678;9.856;2022-12-07T01:58:16;100863.84;;;2.19;100.00
52839;BME280;39219;53.678;9.856;2022-12-07T02:00:43;100865.56;;;2.17;100.00
52839;BME280;39219;53.678;9.856;2022-12-07T02:03:13;100861.91;;;2.07;100.00
52839;BME280;39219;53.678;9.856;2022-12-07T02:05:43;100878.63;;;2.14;100.00
52839;BME280;39219;53.678;9.856;2022-12-07T02:08:10;100871.47;;;2.03;100.00
52839;BME280;39219;53.678;9.856;2022-12-07T02:10:38;100869.81;;;2.09;100.00
52839;BME280;39219;53.678;9.856;2022-12-07T02:13:08;100870.53;;;1.98;100.00
52839;BME280;39219;53.678;9.856;2022-12-07T02:15:44;100867.91;;;1.97;100.00
52839;BME280;39219;53.678;9.856;2022-12-07T02:18:17;100869.69;;;2.01;100.00
52839;BME280;39219;53.678;9.856;2022-12-07T02:20:53;100873.19;;;2.01;100.00
52839;BME280;39219;53.678;9.856;2022-12-07T02:23:50;100868.69;;;1.91;100.00
52839;BME280;39219;53.678;9.856;2022-12-07T02:26:56;100861.56;;;1.79;100.00
52839;BME280;39219;53.678;9.856;2022-12-07T02:29:33;100868.47;;;1.74;100.00
52839;BME280;39219;53.678;9.856;2022-12-07T02:32:06;100856.19;;;1.70;100.00
52839;BME280;39219;53.678;9.856;2022-12-07T02:34:42;100854.47;;;1.72;100.00
52839;BME280;39219;53.678;9.856;2022-12-07T02:37:18;100855.22;;;1.63;100.00
52839;BME280;39219;53.678;9.856;2022-12-07T02:39:51;100857.84;;;1.63;100.00
52839;BME280;39219;53.678;9.856;2022-12-07T02:42:23;100860.47;;;1.65;100.00
52839;BME280;39219;53.678;9.856;2022-12-07T02:44:53;100863.94;;;1.63;100.00
52839;BME280;39219;53.678;9.856;2022-12-07T02:47:21;100863.09;;;1.66;100.00
52839;BME280;39219;53.678;9.856;2022-12-07T02:49:50;100867.38;;;1.59;100.00
52839;BME280;39219;53.678;9.856;2022-12-07T02:52:17;100862.13;;;1.59;100.00
52839;BME280;39219;53.678;9.856;2022-12-07T02:54:44;100863.94;;;1.63;100.00
52839;BME280;39219;53.678;9.856;2022-12-07T02:57:23;100861.25;;;1.59;100.00
52839;BME280;39219;53.678;9.856;2022-12-07T03:00:01;100858.56;;;1.54;100.00
52839;BME280;39219;53.678;9.856;2022-12-07T03:02:37;100865.59;;;1.58;100.00
52839;BME280;39219;53.678;9.856;2022-12-07T03:05:34;100865.69;;;1.63;100.00
52839;BME280;39219;53.678;9.856;2022-12-07T03:08:08;100862.06;;;1.55;100.00
52839;BME280;39219;53.678;9.856;2022-12-07T03:10:42;100858.66;;;1.59;100.00
52839;BME280;39219;53.678;9.856;2022-12-07T03:13:21;100859.41;;;1.52;100.00
52839;BME280;39219;53.678;9.856;2022-12-07T03:15:55;100860.25;;;1.51;100.00
52839;BME280;39219;53.678;9.856;2022-12-07T03:18:28;100861.13;;;1.51;100.00
52839;BME280;39219;53.678;9.856;2022-12-07T03:20:58;100861.22;;;1.56;100.00
52839;BME280;39219;53.678;9.856;2022-12-07T03:23:29;100863.94;;;1.62;100.00
52839;BME280;39219;53.678;9.856;2022-12-07T03:25:59;100866.53;;;1.62;100.00
52839;BME280;39219;53.678;9.856;2022-12-07T03:28:34;100860.22;;;1.49;100.00
52839;BME280;39219;53.678;9.856;2022-12-07T03:31:06;100866.25;;;1.43;100.00
52839;BME280;39219;53.678;9.856;2022-12-07T03:33:40;100865.44;;;1.47;100.00
52839;BME280;39219;53.678;9.856;2022-12-07T03:36:14;100862.03;;;1.53;100.00
52839;BME280;39219;53.678;9.856;2022-12-07T03:38:46;100864.69;;;1.55;100.00
52839;BME280;39219;53.678;9.856;2022-12-07T03:41:19;100865.41;;;1.44;100.00
52839;BME280;39219;53.678;9.856;2022-12-07T03:43:49;100866.25;;;1.45;100.00
52839;BME280;39219;53.678;9.856;2022-12-07T03:46:20;100864.44;;;1.41;100.00
52839;BME280;39219;53.678;9.856;2022-12-07T03:48:56;100866.22;;;1.42;100.00
52839;BME280;39219;53.678;9.856;2022-12-07T03:51:29;100869.69;;;1.41;100.00
52839;BME280;39219;53.678;9.856;2022-12-07T03:54:05;100873.16;;;1.38;100.00
52839;BME280;39219;53.678;9.856;2022-12-07T03:56:35;100875.72;;;1.37;100.00
52839;BME280;39219;53.678;9.856;2022-12-07T03:59:02;100874.84;;;1.36;100.00
52839;BME280;39219;53.678;9.856;2022-12-07T04:01:31;100875.59;;;1.27;100.00
52839;BME280;39219;53.678;9.856;2022-12-07T04:03:57;100879.09;;;1.28;100.00
52839;BME280;39219;53.678;9.856;2022-12-07T04:06:24;100876.47;;;1.28;100.00
52839;BME280;39219;53.678;9.856;2022-12-07T04:08:50;100870.41;;;1.30;100.00
52839;BME280;39219;53.678;9.856;2022-12-07T04:11:17;100870.47;;;1.35;100.00
52839;BME280;39219;53.678;9.856;2022-12-07T04:13:44;100866.84;;;1.27;100.00
52839;BME280;39219;53.678;9.856;2022-12-07T04:16:29;100871.22;;;1.28;100.00
52839;BME280;39219;53.678;9.856;2022-12-07T04:18:56;100871.28;;;1.29;100.00
52839;BME280;39219;53.678;9.856;2022-12-07T04:21:22;100868.44;;;1.18;100.00
52839;BME280;39219;53.678;9.856;2022-12-07T04:23:49;100872.06;;;1.25;100.00
52839;BME280;39219;53.678;9.856;2022-12-07T04:26:15;100875.59;;;1.27;100.00
52839;BME280;39219;53.678;9.856;2022-12-07T04:28:42;100871.94;;;1.17;100.00
52839;BME280;39219;53.678;9.856;2022-12-07T04:31:08;100870.94;;;1.11;100.00
52839;BME280;39219;53.678;9.856;2022-12-07T04:33:36;100875.50;;;1.21;100.00
52839;BME280;39219;53.678;9.856;2022-12-07T04:36:03;100864.06;;;1.16;100.00
52839;BME280;39219;53.678;9.856;2022-12-07T04:38:30;100874.53;;;1.16;100.00
52839;BME280;39219;53.678;9.856;2022-12-07T04:40:56;100872.63;;;1.07;100.00
52839;BME280;39219;53.678;9.856;2022-12-07T04:43:23;100874.44;;;1.11;100.00
52839;BME280;39219;53.678;9.856;2022-12-07T04:45:49;100881.34;;;1.08;100.00
52839;BME280;39219;53.678;9.856;2022-12-07T04:48:16;100875.22;;;1.06;100.00
52839;BME280;39219;53.678;9.856;2022-12-07T04:50:47;100870.78;;;1.01;100.00
52839;BME280;39219;53.678;9.856;2022-12-07T04:53:13;100875.06;;;0.96;100.00
52839;BME280;39219;53.678;9.856;2022-12-07T04:55:40;100869.03;;;1.00;100.00
52839;BME280;39219;53.678;9.856;2022-12-07T04:58:07;100873.34;;;1.00;100.00
52839;BME280;39219;53.678;9.856;2022-12-07T05:00:33;100869.09;;;1.03;100.00
52839;BME280;39219;53.678;9.856;2022-12-07T05:03:00;100869.88;;;0.98;100.00
52839;BME280;39219;53.678;9.856;2022-12-07T05:05:26;100864.75;;;1.06;100.00
52839;BME280;39219;53.678;9.856;2022-12-07T05:07:54;100867.22;;;0.96;100.00
52839;BME280;39219;53.678;9.856;2022-12-07T05:10:21;100868.97;;;0.96;100.00
52839;BME280;39219;53.678;9.856;2022-12-07T05:12:47;100874.94;;;0.90;100.00
52839;BME280;39219;53.678;9.856;2022-12-07T05:15:14;100866.19;;;0.88;100.00
52839;BME280;39219;53.678;9.856;2022-12-07T05:17:41;100874.00;;;0.86;100.00
52839;BME280;39219;53.678;9.856;2022-12-07T05:20:08;100871.34;;;0.83;100.00
52839;BME280;39219;53.678;9.856;2022-12-07T05:22:35;100866.06;;;0.82;100.00
52839;BME280;39219;53.678;9.856;2022-12-07T05:25:03;100868.66;;;0.80;100.00
52839;BME280;39219;53.678;9.856;2022-12-07T05:27:30;100866.13;;;0.85;100.00
52839;BME280;39219;53.678;9.856;2022-12-07T05:29:57;100868.06;;;0.95;100.00
52839;BME280;39219;53.678;9.856;2022-12-07T05:32:23;100863.75;;;0.97;100.00
52839;BME280;39219;53.678;9.856;2022-12-07T05:34:50;100862.81;;;0.95;100.00
52839;BME280;39219;53.678;9.856;2022-12-07T05:37:16;100866.28;;;0.94;100.00
52839;BME280;39219;53.678;9.856;2022-12-07T05:39:43;100856.69;;;0.92;100.00
52839;BME280;39219;53.678;9.856;2022-12-07T05:42:11;100857.41;;;0.84;100.00
52839;BME280;39219;53.678;9.856;2022-12-07T05:44:40;100857.19;;;0.73;100.00
52839;BME280;39219;53.678;9.856;2022-12-07T05:47:07;100853.69;;;0.71;100.00
52839;BME280;39219;53.678;9.856;2022-12-07T05:49:33;100854.50;;;0.69;100.00
52839;BME280;39219;53.678;9.856;2022-12-07T05:52:00;100857.19;;;0.73;100.00
52839;BME280;39219;53.678;9.856;2022-12-07T05:54:27;100857.19;;;0.73;100.00
52839;BME280;39219;53.678;9.856;2022-12-07T05:56:54;100857.19;;;0.72;100.00
52839;BME280;39219;53.678;9.856;2022-12-07T05:59:22;100859.91;;;0.78;100.00
52839;BME280;39219;53.678;9.856;2022-12-07T06:01:48;100854.47;;;0.67;100.00
52839;BME280;39219;53.678;9.856;2022-12-07T06:04:14;100856.03;;;0.56;100.00
52839;BME280;39219;53.678;9.856;2022-12-07T06:06:41;100858.88;;;0.70;100.00
52839;BME280;39219;53.678;9.856;2022-12-07T06:09:07;100851.06;;;0.71;100.00
52839;BME280;39219;53.678;9.856;2022-12-07T06:11:34;100855.38;;;0.69;100.00
52839;BME280;39219;53.678;9.856;2022-12-07T06:14:18;100867.69;;;0.75;100.00
52839;BME280;39219;53.678;9.856;2022-12-07T06:16:46;100851.22;;;0.79;100.00
52839;BME280;39219;53.678;9.856;2022-12-07T06:19:13;100853.84;;;0.81;100.00
52839;BME280;39219;53.678;9.856;2022-12-07T06:21:39;100849.53;;;0.83;100.00
52839;BME280;39219;53.678;9.856;2022-12-07T06:24:06;100846.06;;;0.84;100.00
52839;BME280;39219;53.678;9.856;2022-12-07T06:26:33;100846.06;;;0.82;100.00
52839;BME280;39219;53.678;9.856;2022-12-07T06:28:59;100847.88;;;0.86;100.00
52839;BME280;39219;53.678;9.856;2022-12-07T06:31:26;100843.44;;;0.84;100.00
52839;BME280;39219;53.678;9.856;2022-12-07T06:33:58;100842.72;;;0.91;100.00
52839;BME280;39219;53.678;9.856;2022-12-07T06:36:24;100845.41;;;0.96;100.00
52839;BME280;39219;53.678;9.856;2022-12-07T06:38:51;100840.31;;;1.03;100.00
52839;BME280;39219;53.678;9.856;2022-12-07T06:41:17;100844.69;;;1.05;100.00
52839;BME280;39219;53.678;9.856;2022-12-07T06:43:44;100848.28;;;1.11;100.00
52839;BME280;39219;53.678;9.856;2022-12-07T06:46:10;100852.69;;;1.14;100.00
52839;BME280;39219;53.678;9.856;2022-12-07T06:48:37;100841.44;;;1.18;100.00
52839;BME280;39219;53.678;9.856;2022-12-07T06:51:05;100847.56;;;1.22;100.00
52839;BME280;39219;53.678;9.856;2022-12-07T06:53:32;100839.78;;;1.23;100.00
52839;BME280;39219;53.678;9.856;2022-12-07T06:55:58;100853.81;;;1.28;100.00
52839;BME280;39219;53.678;9.856;2022-12-07T06:58:25;100847.72;;;1.29;100.00
52839;BME280;39219;53.678;9.856;2022-12-07T07:00:52;100843.41;;;1.33;100.00
52839;BME280;39219;53.678;9.856;2022-12-07T07:03:18;100847.78;;;1.34;100.00
52839;BME280;39219;53.678;9.856;2022-12-07T07:05:45;100845.22;;;1.37;100.00
52839;BME280;39219;53.678;9.856;2022-12-07T07:08:13;100843.47;;;1.36;100.00
52839;BME280;39219;53.678;9.856;2022-12-07T07:10:40;100854.84;;;1.40;100.00
52839;BME280;39219;53.678;9.856;2022-12-07T07:13:07;100858.41;;;1.43;100.00
52839;BME280;39219;53.678;9.856;2022-12-07T07:15:34;100855.78;;;1.43;100.00
52839;BME280;39219;53.678;9.856;2022-12-07T07:18:01;100853.13;;;1.42;100.00
52839;BME280;39219;53.678;9.856;2022-12-07T07:20:28;100857.44;;;1.38;100.00
52839;BME280;39219;53.678;9.856;2022-12-07T07:22:56;100852.22;;;1.40;100.00
52839;BME280;39219;53.678;9.856;2022-12-07T07:25:24;100849.66;;;1.43;100.00
52839;BME280;39219;53.678;9.856;2022-12-07T07:27:50;100853.97;;;1.39;100.00
52839;BME280;39219;53.678;9.856;2022-12-07T07:30:17;100854.78;;;1.37;100.00
52839;BME280;39219;53.678;9.856;2022-12-07T07:32:43;100846.09;;;1.38;100.00
52839;BME280;39219;53.678;9.856;2022-12-07T07:35:10;100859.22;;;1.39;100.00
52839;BME280;39219;53.678;9.856;2022-12-07T07:37:37;100861.03;;;1.43;100.00
52839;BME280;39219;53.678;9.856;2022-12-07T07:40:05;100861.06;;;1.46;100.00
52839;BME280;39219;53.678;9.856;2022-12-07T07:42:33;100864.50;;;1.44;100.00
52839;BME280;39219;53.678;9.856;2022-12-07T07:45:00;100868.94;;;1.48;100.00
52839;BME280;39219;53.678;9.856;2022-12-07T07:47:26;100868.97;;;1.51;100.00
52839;BME280;39219;53.678;9.856;2022-12-07T07:49:54;100883.81;;;1.52;100.00
52839;BME280;39219;53.678;9.856;2022-12-07T07:52:20;100869.88;;;1.52;100.00
52839;BME280;39219;53.678;9.856;2022-12-07T07:54:47;100871.69;;;1.56;100.00
52839;BME280;39219;53.678;9.856;2022-12-07T07:57:13;100881.31;;;1.58;100.00
52839;BME280;39219;53.678;9.856;2022-12-07T07:59:41;100872.63;;;1.61;100.00
52839;BME280;39219;53.678;9.856;2022-12-07T08:02:09;100882.16;;;1.57;100.00
52839;BME280;39219;53.678;9.856;2022-12-07T08:04:39;100877.88;;;1.62;100.00
52839;BME280;39219;53.678;9.856;2022-12-07T08:07:06;100874.56;;;1.73;100.00
52839;BME280;39219;53.678;9.856;2022-12-07T08:09:32;100878.03;;;1.73;100.00
52839;BME280;39219;53.678;9.856;2022-12-07T08:11:59;100878.16;;;1.83;100.00
52839;BME280;39219;53.678;9.856;2022-12-07T08:14:25;100874.69;;;1.82;100.00
52839;BME280;39219;53.678;9.856;2022-12-07T08:16:55;100870.34;;;1.84;100.00
52839;BME280;39219;53.678;9.856;2022-12-07T08:19:21;100880.94;;;1.92;100.00
52839;BME280;39219;53.678;9.856;2022-12-07T08:21:48;100871.44;;;1.99;100.00
52839;BME280;39219;53.678;9.856;2022-12-07T08:24:15;100874.06;;;2.02;100.00
52839;BME280;39219;53.678;9.856;2022-12-07T08:26:42;100872.34;;;2.02;100.00
52839;BME280;39219;53.678;9.856;2022-12-07T08:29:08;100875.06;;;2.10;100.00
52839;BME280;39219;53.678;9.856;2022-12-07T08:31:35;100882.09;;;2.13;100.00
52839;BME280;39219;53.678;9.856;2022-12-07T08:34:03;100874.22;;;2.13;100.00
52839;BME280;39219;53.678;9.856;2022-12-07T08:36:29;100876.94;;;2.20;100.00
52839;BME280;39219;53.678;9.856;2022-12-07T08:38:56;100879.63;;;2.27;100.00
52839;BME280;39219;53.678;9.856;2022-12-07T08:41:22;100877.06;;;2.28;100.00
52839;BME280;39219;53.678;9.856;2022-12-07T08:43:50;100876.25;;;2.35;100.00
52839;BME280;39219;53.678;9.856;2022-12-07T08:46:19;100873.63;;;2.34;100.00
52839;BME280;39219;53.678;9.856;2022-12-07T08:48:51;100873.66;;;2.37;100.00
52839;BME280;39219;53.678;9.856;2022-12-07T08:51:21;100877.97;;;2.33;100.00
52839;BME280;39219;53.678;9.856;2022-12-07T08:53:48;100884.09;;;2.35;100.00
52839;BME280;39219;53.678;9.856;2022-12-07T08:56:15;100878.91;;;2.37;100.00
52839;BME280;39219;53.678;9.856;2022-12-07T08:58:42;100878.91;;;2.39;100.00
52839;BME280;39219;53.678;9.856;2022-12-07T09:01:09;100886.88;;;2.46;100.00
52839;BME280;39219;53.678;9.856;2022-12-07T09:03:36;100884.25;;;2.48;100.00
52839;BME280;39219;53.678;9.856;2022-12-07T09:06:02;100887.81;;;2.53;100.00
52839;BME280;39219;53.678;9.856;2022-12-07T09:08:33;100890.47;;;2.56;100.00
52839;BME280;39219;53.678;9.856;2022-12-07T09:11:01;100881.75;;;2.57;100.00
52839;BME280;39219;53.678;9.856;2022-12-07T09:13:27;100893.22;;;2.64;100.00
52839;BME280;39219;53.678;9.856;2022-12-07T09:15:53;100887.13;;;2.71;100.00
52839;BME280;39219;53.678;9.856;2022-12-07T09:18:20;100890.72;;;2.78;100.00
52839;BME280;39219;53.678;9.856;2022-12-07T09:20:46;100885.50;;;2.79;100.00
52839;BME280;39219;53.678;9.856;2022-12-07T09:23:13;100883.81;;;2.86;100.00
52839;BME280;39219;53.678;9.856;2022-12-07T09:25:41;100885.63;;;2.90;100.00
52839;BME280;39219;53.678;9.856;2022-12-07T09:28:08;100887.44;;;3.01;100.00
52839;BME280;39219;53.678;9.856;2022-12-07T09:30:34;100887.53;;;3.08;100.00
52839;BME280;39219;53.678;9.856;2022-12-07T09:33:01;100892.78;;;3.10;100.00
52839;BME280;39219;53.678;9.856;2022-12-07T09:35:28;100898.16;;;3.21;100.00
52839;BME280;39219;53.678;9.856;2022-12-07T09:37:55;100891.22;;;3.29;100.00
52839;BME280;39219;53.678;9.856;2022-12-07T09:40:22;100886.91;;;3.37;100.00
52839;BME280;39219;53.678;9.856;2022-12-07T09:42:52;100895.66;;;3.39;100.00
52839;BME280;39219;53.678;9.856;2022-12-07T09:45:22;100887.00;;;3.50;100.00
52839;BME280;39219;53.678;9.856;2022-12-07T09:47:49;100889.69;;;3.59;100.00
52839;BME280;39219;53.678;9.856;2022-12-07T09:50:19;100887.97;;;3.61;100.00
52839;BME280;39219;53.678;9.856;2022-12-07T09:52:48;100886.22;;;3.59;100.00
52839;BME280;39219;53.678;9.856;2022-12-07T09:55:20;100884.53;;;3.70;100.00
52839;BME280;39219;53.678;9.856;2022-12-07T09:57:48;100887.25;;;3.81;100.00
52839;BME280;39219;53.678;9.856;2022-12-07T10:00:20;100886.41;;;3.88;100.00
52839;BME280;39219;53.678;9.856;2022-12-07T10:02:48;100876.84;;;3.96;100.00
52839;BME280;39219;53.678;9.856;2022-12-07T10:05:19;100883.84;;;4.00;100.00
52839;BME280;39219;53.678;9.856;2022-12-07T10:07:47;100881.22;;;4.02;100.00
52839;BME280;39219;53.678;9.856;2022-12-07T10:10:17;100873.34;;;4.02;100.00
52839;BME280;39219;53.678;9.856;2022-12-07T10:12:55;100876.84;;;4.06;100.00
52839;BME280;39219;53.678;9.856;2022-12-07T10:15:41;100880.41;;;4.17;100.00
52839;BME280;39219;53.678;9.856;2022-12-07T10:18:17;100872.56;;;4.23;100.00
52839;BME280;39219;53.678;9.856;2022-12-07T10:20:45;100876.09;;;4.25;100.00
52839;BME280;39219;53.678;9.856;2022-12-07T10:23:14;100877.84;;;4.25;100.00
52839;BME280;39219;53.678;9.856;2022-12-07T10:25:41;100872.56;;;4.22;100.00
52839;BME280;39219;53.678;9.856;2022-12-07T10:28:13;100868.19;;;4.21;100.00
52839;BME280;39219;53.678;9.856;2022-12-07T10:30:50;100872.59;;;4.25;100.00
52839;BME280;39219;53.678;9.856;2022-12-07T10:33:33;100872.63;;;4.39;100.00
52839;BME280;39219;53.678;9.856;2022-12-07T10:36:01;100874.38;;;4.41;100.00
52839;BME280;39219;53.678;9.856;2022-12-07T10:38:44;100879.69;;;4.48;100.00
52839;BME280;39219;53.678;9.856;2022-12-07T10:41:11;100871.81;;;4.51;100.00
52839;BME280;39219;53.678;9.856;2022-12-07T10:43:46;100873.56;;;4.52;100.00
52839;BME280;39219;53.678;9.856;2022-12-07T10:46:32;100864.81;;;4.51;100.00
52839;BME280;39219;53.678;9.856;2022-12-07T10:49:15;100867.47;;;4.61;100.00
52839;BME280;39219;53.678;9.856;2022-12-07T10:51:52;100873.63;;;4.67;100.00
52839;BME280;39219;53.678;9.856;2022-12-07T10:54:23;100875.38;;;4.79;100.00
52839;BME280;39219;53.678;9.856;2022-12-07T10:57:17;100867.50;;;4.88;100.00
52839;BME280;39219;53.678;9.856;2022-12-07T10:59:58;100860.53;;;5.03;100.00
52839;BME280;39219;53.678;9.856;2022-12-07T11:02:41;100865.81;;;5.12;100.00
52839;BME280;39219;53.678;9.856;2022-12-07T11:05:20;100861.41;;;5.19;100.00
52839;BME280;39219;53.678;9.856;2022-12-07T11:07:59;100862.28;;;5.09;100.00
52839;BME280;39219;53.678;9.856;2022-12-07T11:10:37;100849.13;;;5.12;100.00
52839;BME280;39219;53.678;9.856;2022-12-07T11:13:23;100855.25;;;5.14;100.00
52839;BME280;39219;53.678;9.856;2022-12-07T11:16:10;100850.00;;;5.14;100.00
52839;BME280;39219;53.678;9.856;2022-12-07T11:18:46;100850.00;;;5.15;100.00
52839;BME280;39219;53.678;9.856;2022-12-07T11:21:20;100861.41;;;5.11;100.00
52839;BME280;39219;53.678;9.856;2022-12-07T11:23:56;100850.88;;;5.11;100.00
52839;BME280;39219;53.678;9.856;2022-12-07T11:26:36;100845.63;;;5.11;100.00
52839;BME280;39219;53.678;9.856;2022-12-07T11:29:25;100843.84;;;5.06;100.00
52839;BME280;39219;53.678;9.856;2022-12-07T11:32:01;100844.75;;;5.12;99.12
52839;BME280;39219;53.678;9.856;2022-12-07T11:34:38;100845.59;;;5.16;99.53
52839;BME280;39219;53.678;9.856;2022-12-07T11:37:10;100840.38;;;5.24;97.93
52839;BME280;39219;53.678;9.856;2022-12-07T11:39:41;100835.06;;;5.36;96.66
52839;BME280;39219;53.678;9.856;2022-12-07T11:42:14;100835.97;;;5.40;96.29
52839;BME280;39219;53.678;9.856;2022-12-07T11:44:49;100835.94;;;5.38;94.81
52839;BME280;39219;53.678;9.856;2022-12-07T11:47:25;100835.97;;;5.40;94.46
52839;BME280;39219;53.678;9.856;2022-12-07T11:50:01;100832.44;;;5.50;94.00
52839;BME280;39219;53.678;9.856;2022-12-07T11:52:37;100838.59;;;5.49;92.76
52839;BME280;39219;53.678;9.856;2022-12-07T11:55:19;100836.81;;;5.56;93.01
52839;BME280;39219;53.678;9.856;2022-12-07T11:57:51;100830.66;;;5.57;92.07
52839;BME280;39219;53.678;9.856;2022-12-07T12:00:20;100831.56;;;5.57;92.51
52839;BME280;39219;53.678;9.856;2022-12-07T12:02:52;100833.28;;;5.60;91.35
52839;BME280;39219;53.678;9.856;2022-12-07T12:05:25;100825.38;;;5.66;91.67
52839;BME280;39219;53.678;9.856;2022-12-07T12:07:59;100829.78;;;5.67;89.27
52839;BME280;39219;53.678;9.856;2022-12-07T12:10:35;100826.25;;;5.71;91.24
52839;BME280;39219;53.678;9.856;2022-12-07T12:13:14;100827.13;;;5.80;90.89
52839;BME280;39219;53.678;9.856;2022-12-07T12:15:59;100835.91;;;5.74;89.33
52839;BME280;39219;53.678;9.856;2022-12-07T12:18:44;100833.28;;;5.72;90.02
52839;BME280;39219;53.678;9.856;2022-12-07T12:21:22;100838.56;;;5.69;89.77
52839;BME280;39219;53.678;9.856;2022-12-07T12:23:56;100828.84;;;5.79;89.04
52839;BME280;39219;53.678;9.856;2022-12-07T12:26:26;100825.38;;;5.63;87.00
52839;BME280;39219;53.678;9.856;2022-12-07T12:28:56;100825.38;;;5.72;86.06
52839;BME280;39219;53.678;9.856;2022-12-07T12:31:34;100822.72;;;5.74;84.30
52839;BME280;39219;53.678;9.856;2022-12-07T12:34:03;100828.88;;;5.76;84.32
52839;BME280;39219;53.678;9.856;2022-12-07T12:36:45;100826.25;;;5.77;83.63
52839;BME280;39219;53.678;9.856;2022-12-07T12:39:13;100820.97;;;5.63;81.70
52839;BME280;39219;53.678;9.856;2022-12-07T12:42:17;100823.59;;;5.67;81.58
52839;BME280;39219;53.678;9.856;2022-12-07T12:45:17;100828.94;;;5.45;76.58
52839;BME280;39219;53.678;9.856;2022-12-07T12:47:55;100828.03;;;5.41;77.61
52839;BME280;39219;53.678;9.856;2022-12-07T12:50:24;100836.81;;;5.31;75.57
52839;BME280;39219;53.678;9.856;2022-12-07T12:53:02;100835.06;;;5.36;76.55
52839;BME280;39219;53.678;9.856;2022-12-07T12:56:07;100828.06;;;5.37;77.53
52839;BME280;39219;53.678;9.856;2022-12-07T12:58:42;100827.16;;;5.52;79.19
52839;BME280;39219;53.678;9.856;2022-12-07T13:01:43;100835.06;;;5.52;77.23
52839;BME280;39219;53.678;9.856;2022-12-07T13:04:39;100835.06;;;5.61;78.56
52839;BME280;39219;53.678;9.856;2022-12-07T13:07:53;100835.03;;;5.64;78.31
52839;BME280;39219;53.678;9.856;2022-12-07T13:13:32;100830.63;;;5.80;78.24